Time;durP1;ratioP1;P1;durP2;ratioP2;P2;SDS_P1;SDS_P2;PMS_P1;PMS_P2;Temp;Humidity;BMP_temperature;BMP_pressure;BME280_temperature;BME280_humidity;BME280_pressure;Samples;Min_cycle;Max_cycle;Signal;HPM_P1;HPM_P2
2023/03/05 00:01:25;;;;;;;14.00;2.03;;;4.50;99.90;;;;;;5092789;28;20036;-67
2023/03/05 00:03:53;;;;;;;9.80;1.17;;;4.40;99.90;;;;;;5092629;28;20098;-67
2023/03/05 00:06:20;;;;;;;15.93;2.03;;;4.00;99.90;;;;;;5092187;28;20040;-67
2023/03/05 00:08:46;;;;;;;15.15;1.58;;;4.40;99.90;;;;;;5092876;28;20039;-68
2023/03/05 00:11:12;;;;;;;;;;;4.10;99.90;;;;;;5093237;28;20055;-67
2023/03/05 00:13:38;;;;;;;5.70;1.30;;;4.20;99.90;;;;;;5092859;28;19920;-67
2023/03/05 00:16:09;;;;;;;3.25;0.70;;;4.20;99.90;;;;;;5092772;28;20048;-69
2023/03/05 00:18:35;;;;;;;5.88;1.00;;;4.30;99.90;;;;;;5092636;28;20040;-70
2023/03/05 00:21:01;;;;;;;;;;;4.40;99.90;;;;;;5093069;28;20475;-68
2023/03/05 00:23:26;;;;;;;2.42;0.80;;;4.00;99.90;;;;;;5092616;28;20010;-67
2023/03/05 00:25:52;;;;;;;3.10;0.98;;;3.80;99.90;;;;;;5092249;28;20047;-68
2023/03/05 00:28:18;;;;;;;3.60;1.27;;;3.70;99.90;;;;;;5091395;28;20093;-67
2023/03/05 00:30:44;;;;;;;2.42;1.13;;;;;;;;;;5092259;28;20082;-68
2023/03/05 00:33:11;;;;;;;3.90;0.90;;;4.10;99.90;;;;;;5092549;28;20515;-67
2023/03/05 00:35:41;;;;;;;5.65;1.10;;;3.70;99.90;;;;;;5092144;28;20036;-68
2023/03/05 00:38:07;;;;;;;7.45;1.23;;;4.20;99.90;;;;;;5092241;28;20097;-67
2023/03/05 00:40:40;;;;;;;6.20;0.90;;;;;;;;;;5091908;28;20052;-67
2023/03/05 00:43:06;;;;;;;10.75;1.35;;;4.10;99.90;;;;;;5091645;28;20067;-68
2023/03/05 00:45:32;;;;;;;5.93;1.10;;;4.10;99.90;;;;;;5091970;28;20129;-68
2023/03/05 00:47:58;;;;;;;1.17;1.00;;;3.80;99.90;;;;;;5091717;28;20052;-67
2023/03/05 00:50:24;;;;;;;;;;;;;;;;;;5092472;28;20076;-67
2023/03/05 00:52:51;;;;;;;5.82;1.17;;;;;;;;;;5091836;28;20370;-68
2023/03/05 00:55:17;;;;;;;4.40;0.90;;;;;;;;;;5091250;28;20064;-68
2023/03/05 00:57:43;;;;;;;8.13;1.00;;;;;;;;;;5091913;28;20068;-68
2023/03/05 01:00:10;;;;;;;8.18;1.70;;;4.20;99.90;;;;;;5090015;28;20050;-67
2023/03/05 01:02:36;;;;;;;4.10;0.90;;;;;;;;;;5091760;28;20476;-68
2023/03/05 01:05:02;;;;;;;9.30;1.10;;;3.70;99.90;;;;;;5091872;28;20146;-67
2023/03/05 01:07:28;;;;;;;6.07;0.90;;;;;;;;;;5091789;28;20048;-68
2023/03/05 01:09:54;;;;;;;7.88;1.10;;;4.20;99.90;;;;;;5091511;28;20044;-67
2023/03/05 01:12:20;;;;;;;4.28;0.93;;;;;;;;;;5091582;28;20127;-67
2023/03/05 01:14:46;;;;;;;9.85;1.40;;;3.50;99.90;;;;;;5091331;28;20496;-67
2023/03/05 01:17:11;;;;;;;7.97;1.55;;;4.00;99.90;;;;;;5091733;28;20047;-67
2023/03/05 01:19:37;;;;;;;11.18;1.60;;;;;;;;;;5091288;28;20093;-67
2023/03/05 01:22:03;;;;;;;11.60;1.50;;;4.00;99.90;;;;;;5091403;28;20563;-67
2023/03/05 01:24:30;;;;;;;9.88;1.30;;;;;;;;;;5091288;28;20060;-67
2023/03/05 01:26:56;;;;;;;6.80;1.42;;;3.40;99.90;;;;;;5090212;28;20056;-67
2023/03/05 01:29:22;;;;;;;3.63;1.15;;;3.80;99.90;;;;;;5091453;28;20431;-66
2023/03/05 01:31:48;;;;;;;;;;;3.50;99.90;;;;;;5091782;28;20040;-67
2023/03/05 01:34:14;;;;;;;12.25;1.33;;;;;;;;;;5091535;28;20276;-67
2023/03/05 01:36:41;;;;;;;;;;;3.50;99.90;;;;;;5090681;28;20052;-67
2023/03/05 01:39:07;;;;;;;13.48;1.67;;;;;;;;;;5090385;28;19924;-67
2023/03/05 01:41:33;;;;;;;9.38;1.92;;;;;;;;;;5091267;28;20051;-67
2023/03/05 01:43:59;;;;;;;;;;;3.70;99.90;;;;;;5091468;28;20051;-70
2023/03/05 01:46:32;;;;;;;7.10;1.45;;;4.20;99.90;;;;;;5091200;28;19927;-67
2023/03/05 01:49:03;;;;;;;5.57;1.13;;;;;;;;;;5091324;28;20080;-67
2023/03/05 01:51:31;;;;;;;6.20;1.25;;;;;;;;;;5091246;28;20126;-67
2023/03/05 01:53:59;;;;;;;7.95;1.20;;;3.70;99.90;;;;;;5090929;28;20579;-67
2023/03/05 01:56:27;;;;;;;5.50;1.33;;;3.60;99.90;;;;;;5091108;28;20826;-66
2023/03/05 01:58:56;;;;;;;10.95;1.00;;;;;;;;;;5091656;28;20054;-67
2023/03/05 02:01:22;;;;;;;6.18;1.40;;;;;;;;;;5091641;28;20087;-67
2023/03/05 02:03:48;;;;;;;6.32;1.10;;;3.70;99.90;;;;;;5091493;28;20055;-67
2023/03/05 02:06:14;;;;;;;13.77;1.30;;;3.50;99.90;;;;;;5091349;28;20036;-67
2023/03/05 02:08:40;;;;;;;7.32;1.65;;;3.60;99.90;;;;;;5091030;28;20050;-67
2023/03/05 02:11:06;;;;;;;10.32;1.50;;;3.80;99.90;;;;;;5091082;28;20052;-67
2023/03/05 02:13:33;;;;;;;;;;;3.00;99.90;;;;;;5090567;28;20095;-67
2023/03/05 02:16:00;;;;;;;8.10;1.42;;;3.60;99.90;;;;;;5091099;28;20291;-67
2023/03/05 02:18:26;;;;;;;8.70;1.23;;;;;;;;;;5091017;28;20048;-66
2023/03/05 02:20:55;;;;;;;10.35;1.85;;;3.80;99.90;;;;;;5091033;28;20052;-67
2023/03/05 02:23:22;;;;;;;4.65;1.25;;;;;;;;;;5090974;28;20693;-66
2023/03/05 02:25:48;;;;;;;9.13;1.42;;;3.40;99.90;;;;;;5090503;28;20607;-67
2023/03/05 02:28:39;;;;;;;8.77;1.20;;;3.70;99.90;;;;;;5089756;28;20096;-68
2023/03/05 02:31:24;;;;;;;7.28;1.38;;;;;;;;;;5094683;28;20048;-67
2023/03/05 02:33:51;;;;;;;10.40;1.40;;;4.10;99.90;;;;;;5094586;28;20044;-67
2023/03/05 02:36:17;;;;;;;8.95;1.35;;;;;;;;;;5093103;28;20052;-67
2023/03/05 02:38:44;;;;;;;3.65;0.90;;;4.00;99.90;;;;;;5094676;28;20083;-68
2023/03/05 02:41:10;;;;;;;2.80;1.10;;;;;;;;;;5094445;28;20048;-67
2023/03/05 02:43:36;;;;;;;5.70;1.00;;;;;;;;;;5094126;28;20075;-67
2023/03/05 02:46:03;;;;;;;3.08;0.82;;;;;;;;;;5094262;28;20128;-67
2023/03/05 02:48:29;;;;;;;5.40;1.02;;;3.80;99.90;;;;;;5094252;28;20047;-68
2023/03/05 02:50:55;;;;;;;7.90;1.40;;;4.10;99.90;;;;;;5094095;28;20067;-67
2023/03/05 02:53:22;;;;;;;6.90;1.10;;;;;;;;;;5094379;28;20169;-67
2023/03/05 02:55:48;;;;;;;4.93;1.20;;;3.80;99.90;;;;;;5094311;28;20079;-67
2023/03/05 02:58:14;;;;;;;4.80;1.38;;;3.00;99.90;;;;;;5094192;28;20084;-67
2023/03/05 03:00:40;;;;;;;7.80;1.35;;;3.20;99.90;;;;;;5094170;28;20155;-67
2023/03/05 03:03:06;;;;;;;6.35;1.30;;;;;;;;;;5093936;28;20515;-67
2023/03/05 03:05:32;;;;;;;9.90;1.42;;;;;;;;;;5093939;28;20407;-67
2023/03/05 03:07:58;;;;;;;8.65;1.20;;;;;;;;;;5093765;28;20048;-67
2023/03/05 03:10:24;;;;;;;7.65;1.30;;;3.40;99.90;;;;;;5093883;28;20476;-67
2023/03/05 03:12:49;;;;;;;9.77;1.83;;;3.30;99.90;;;;;;5093871;28;20044;-67
2023/03/05 03:15:17;;;;;;;6.30;1.73;;;;;;;;;;5093815;28;20059;-69
2023/03/05 03:17:43;;;;;;;15.00;1.73;;;;;;;;;;5093641;28;20052;-67
2023/03/05 03:20:12;;;;;;;14.07;1.50;;;;;;;;;;5093421;28;20044;-67
2023/03/05 03:22:39;;;;;;;8.63;1.70;;;;;;;;;;5093748;28;20048;-68
2023/03/05 03:25:05;;;;;;;11.13;1.80;;;;;;;;;;5093847;28;20404;-67
2023/03/05 03:27:31;;;;;;;10.77;1.90;;;3.50;99.90;;;;;;5093549;28;20051;-68
2023/03/05 03:30:01;;;;;;;13.23;1.73;;;;;;;;;;5093595;28;20048;-67
2023/03/05 03:32:27;;;;;;;7.82;1.58;;;3.70;99.90;;;;;;5093368;28;20059;-69
2023/03/05 03:34:53;;;;;;;;;;;3.20;99.90;;;;;;5093868;28;20048;-67
2023/03/05 03:37:19;;;;;;;8.45;1.88;;;;;;;;;;5092296;28;19920;-67
2023/03/05 03:39:45;;;;;;;13.07;1.80;;;3.50;99.90;;;;;;5093464;28;20090;-67
2023/03/05 03:42:11;;;;;;;12.38;1.40;;;;;;;;;;5091858;28;20075;-67
2023/03/05 03:44:36;;;;;;;8.43;1.40;;;3.00;99.90;;;;;;5093284;28;20606;-67
2023/03/05 03:47:03;;;;;;;4.32;1.25;;;;;;;;;;5091648;28;20059;-69
2023/03/05 03:49:28;;;;;;;6.72;1.30;;;2.80;99.90;;;;;;5091912;28;20086;-67
2023/03/05 03:51:54;;;;;;;3.53;0.93;;;3.30;99.90;;;;;;5092434;28;20072;-67
2023/03/05 03:54:21;;;;;;;6.45;1.38;;;;;;;;;;5093375;28;20059;-67
2023/03/05 03:56:47;;;;;;;7.93;1.30;;;;;;;;;;5093116;28;20052;-67
2023/03/05 03:59:13;;;;;;;5.18;1.17;;;;;;;;;;5091984;28;20048;-68
2023/03/05 04:01:40;;;;;;;6.13;1.42;;;3.90;99.90;;;;;;5092975;28;20050;-67
2023/03/05 04:04:06;;;;;;;2.75;0.88;;;3.70;99.90;;;;;;5092423;28;20108;-67
2023/03/05 04:06:33;;;;;;;6.97;1.02;;;3.40;99.90;;;;;;5092931;28;20040;-67
2023/03/05 04:08:59;;;;;;;1.40;0.88;;;;;;;;;;5092809;28;20048;-68
2023/03/05 04:11:25;;;;;;;4.70;0.98;;;4.00;99.90;;;;;;5092663;28;20093;-67
2023/03/05 04:13:51;;;;;;;4.53;1.02;;;;;;;;;;5092610;28;20040;-67
2023/03/05 04:16:18;;;;;;;;;;;3.70;99.90;;;;;;5093115;28;20051;-67
2023/03/05 04:18:43;;;;;;;9.23;1.60;;;3.60;99.90;;;;;;5092619;28;19919;-67
2023/03/05 04:21:10;;;;;;;11.70;1.42;;;3.50;99.90;;;;;;5092601;28;20067;-67
2023/03/05 04:23:36;;;;;;;9.57;1.30;;;3.80;99.90;;;;;;5092641;28;20130;-68
2023/03/05 04:26:02;;;;;;;7.45;1.17;;;3.60;99.90;;;;;;5092240;28;20050;-67
2023/03/05 04:28:28;;;;;;;12.13;1.60;;;;;;;;;;5092353;28;20411;-68
2023/03/05 04:30:54;;;;;;;6.05;1.30;;;;;;;;;;5092440;28;20143;-67
2023/03/05 04:33:20;;;;;;;8.38;1.50;;;4.10;99.90;;;;;;5092073;28;20050;-67
2023/03/05 04:35:46;;;;;;;4.55;0.90;;;;;;;;;;5092200;28;20122;-68
2023/03/05 04:38:12;;;;;;;3.63;0.93;;;3.60;99.90;;;;;;5092360;28;20055;-69
2023/03/05 04:40:38;;;;;;;3.95;1.08;;;3.70;99.90;;;;;;5092371;28;20048;-69
2023/03/05 04:43:04;;;;;;;4.10;1.00;;;;;;;;;;5092035;28;20143;-68
2023/03/05 04:45:31;;;;;;;9.15;0.93;;;;;;;;;;5092233;28;20060;-68
2023/03/05 04:47:56;;;;;;;;;;;3.40;99.90;;;;;;5092133;28;20099;-67
2023/03/05 04:50:22;;;;;;;7.05;1.13;;;;;;;;;;5091930;28;20654;-67
2023/03/05 04:52:48;;;;;;;8.63;1.13;;;;;;;;;;5090370;28;20492;-67
2023/03/05 04:55:15;;;;;;;4.93;1.00;;;;;;;;;;5090527;28;20503;-67
2023/03/05 04:57:41;;;;;;;;;;;;;;;;;;5091036;28;20142;-69
2023/03/05 05:00:13;;;;;;;14.30;1.52;;;3.50;99.90;;;;;;5091840;28;20019;-68
2023/03/05 05:02:43;;;;;;;9.63;1.33;;;3.00;99.90;;;;;;5091904;28;20048;-67
2023/03/05 05:05:12;;;;;;;7.47;1.27;;;2.80;99.90;;;;;;5091738;28;20100;-68
2023/03/05 05:07:38;;;;;;;16.25;1.45;;;;;;;;;;5091741;28;20416;-68
2023/03/05 05:10:04;;;;;;;10.38;1.33;;;3.10;99.90;;;;;;5091748;28;20114;-68
2023/03/05 05:12:30;;;;;;;10.65;1.42;;;;;;;;;;5091468;28;20044;-68
2023/03/05 05:14:59;;;;;;;7.65;1.50;;;3.20;99.90;;;;;;5091830;28;20092;-67
2023/03/05 05:17:25;;;;;;;8.05;1.33;;;;;;;;;;5091424;28;20047;-68
2023/03/05 05:19:51;;;;;;;;;;;3.00;99.90;;;;;;5092423;28;20094;-67
2023/03/05 05:22:17;;;;;;;12.77;1.70;;;;;;;;;;5090987;28;19989;-68
2023/03/05 05:24:43;;;;;;;9.13;1.65;;;;;;;;;;5091518;28;20048;-69
2023/03/05 05:27:09;;;;;;;8.38;1.45;;;;;;;;;;5091453;28;20044;-68
2023/03/05 05:29:35;;;;;;;12.68;1.92;;;3.20;99.90;;;;;;5091522;28;20076;-68
2023/03/05 05:32:01;;;;;;;10.65;1.77;;;;;;;;;;5090141;28;20044;-67
2023/03/05 05:34:27;;;;;;;13.75;1.65;;;2.50;99.90;;;;;;5091512;28;20048;-67
2023/03/05 05:36:53;;;;;;;8.98;1.73;;;;;;;;;;5091533;28;20070;-67
2023/03/05 05:39:19;;;;;;;8.52;1.50;;;2.80;99.90;;;;;;5091163;28;20059;-69
2023/03/05 05:41:45;;;;;;;11.48;1.48;;;;;;;;;;5090785;28;20044;-68
2023/03/05 05:44:11;;;;;;;9.48;1.33;;;;;;;;;;5089929;28;20062;-68
2023/03/05 05:46:36;;;;;;;8.98;1.13;;;3.10;99.90;;;;;;5091243;28;20419;-68
2023/03/05 05:49:02;;;;;;;8.93;1.30;;;;;;;;;;5091367;28;20047;-68
2023/03/05 05:51:28;;;;;;;10.85;1.40;;;;;;;;;;5091178;28;20127;-68
2023/03/05 05:53:55;;;;;;;18.60;1.75;;;;;;;;;;5090183;28;20040;-68
2023/03/05 05:56:21;;;;;;;13.05;1.40;;;3.00;99.90;;;;;;5091120;28;20048;-68
2023/03/05 05:58:47;;;;;;;10.07;1.50;;;;;;;;;;5091502;28;20108;-68
2023/03/05 06:01:26;;;;;;;8.45;2.42;;;3.30;99.90;;;;;;5090957;28;20123;-67
2023/03/05 06:03:52;;;;;;;8.10;1.50;;;3.20;99.90;;;;;;5091598;28;20454;-67
2023/03/05 06:06:20;;;;;;;5.65;1.30;;;3.20;99.90;;;;;;5095180;28;20132;-67
2023/03/05 06:08:47;;;;;;;5.30;1.20;;;;;;;;;;5094494;28;20052;-67
2023/03/05 06:11:13;;;;;;;9.63;1.27;;;3.00;99.90;;;;;;5095171;28;20058;-67
2023/03/05 06:13:39;;;;;;;8.00;1.45;;;3.10;99.90;;;;;;5094579;28;20048;-68
2023/03/05 06:16:08;;;;;;;10.23;1.73;;;;;;;;;;5094895;28;20047;-68
2023/03/05 06:18:34;;;;;;;7.18;1.38;;;;;;;;;;5094895;28;20131;-67
2023/03/05 06:21:02;;;;;;;8.90;1.67;;;3.20;99.90;;;;;;5094897;28;20048;-67
2023/03/05 06:23:29;;;;;;;10.07;2.30;;;;;;;;;;5093655;28;20131;-68
2023/03/05 06:25:58;;;;;;;7.25;2.05;;;;;;;;;;5093694;28;20052;-68
2023/03/05 06:28:23;;;;;;;13.10;2.35;;;3.20;99.90;;;;;;5094105;28;20044;-68
2023/03/05 06:30:49;;;;;;;11.10;2.05;;;3.50;99.90;;;;;;5094717;28;20089;-69
2023/03/05 06:33:15;;;;;;;5.50;1.92;;;3.20;99.90;;;;;;5094662;28;20047;-67
2023/03/05 06:35:41;;;;;;;8.00;1.10;;;;;;;;;;5094482;28;20044;-69
2023/03/05 06:38:07;;;;;;;8.27;1.48;;;;;;;;;;5094734;28;20411;-67
2023/03/05 06:40:34;;;;;;;7.88;1.45;;;;;;;;;;5094434;28;20404;-68
2023/03/05 06:43:00;;;;;;;;;;;3.30;99.90;;;;;;5094515;28;20064;-68
2023/03/05 06:45:26;;;;;;;13.35;1.90;;;;;;;;;;5127525;27;20352;-68
2023/03/05 06:47:51;;;;;;;;;;;3.60;99.90;;;;;;5094797;28;20086;-67
2023/03/05 06:50:18;;;;;;;8.65;1.67;;;;;;;;;;5094362;28;19975;-67
2023/03/05 06:52:44;;;;;;;10.98;2.00;;;;;;;;;;5093971;28;20547;-67
2023/03/05 06:55:10;;;;;;;13.63;2.08;;;;;;;;;;5093943;28;20381;-69
2023/03/05 06:57:36;;;;;;;13.05;1.77;;;;;;;;;;5093797;28;20054;-68
2023/03/05 07:00:10;;;;;;;8.88;1.60;;;;;;;;;;5094185;28;20101;-68
2023/03/05 07:02:37;;;;;;;11.13;2.10;;;3.80;99.90;;;;;;5093981;28;20108;-68
2023/03/05 07:05:03;;;;;;;14.25;1.85;;;;;;;;;;5093870;28;20135;-68
2023/03/05 07:07:29;;;;;;;11.30;1.88;;;;;;;;;;5085634;28;20496;-71
2023/03/05 07:09:55;;;;;;;8.15;1.85;;;4.10;99.90;;;;;;5091235;28;20051;-68
2023/03/05 07:12:21;;;;;;;12.57;1.80;;;3.60;99.90;;;;;;5091267;28;20047;-68
2023/03/05 07:14:47;;;;;;;9.45;1.70;;;4.30;99.90;;;;;;5092784;28;20399;-68
2023/03/05 07:17:14;;;;;;;9.38;1.65;;;;;;;;;;5093644;28;20399;-68
2023/03/05 07:19:40;;;;;;;10.05;1.60;;;4.50;99.90;;;;;;5093168;28;20090;-68
2023/03/05 07:22:07;;;;;;;4.25;1.40;;;4.40;99.90;;;;;;5092775;28;20110;-68
2023/03/05 07:24:33;;;;;;;8.32;1.40;;;4.50;99.90;;;;;;5093740;28;20184;-68
2023/03/05 07:26:59;;;;;;;9.68;1.55;;;;;;;;;;5093052;28;20504;-67
2023/03/05 07:29:27;;;;;;;10.98;1.40;;;4.50;99.90;;;;;;5092768;28;20071;-71
2023/03/05 07:31:53;;;;;;;9.18;1.13;;;4.80;99.90;;;;;;5093043;28;20044;-68
2023/03/05 07:34:19;;;;;;;8.63;1.25;;;4.90;99.90;;;;;;5092897;28;20064;-67
2023/03/05 07:36:45;;;;;;;7.78;1.20;;;4.50;99.90;;;;;;5092448;28;20530;-73
2023/03/05 07:39:12;;;;;;;10.38;1.98;;;4.20;99.90;;;;;;5093149;28;20123;-69
2023/03/05 07:41:38;;;;;;;7.72;1.40;;;4.60;99.90;;;;;;5092973;28;20111;-68
2023/03/05 07:44:04;;;;;;;;;;;;;;;;;;5092706;28;20060;-70
2023/03/05 07:46:32;;;;;;;9.48;1.52;;;4.50;99.90;;;;;;5093132;28;20107;-67
2023/03/05 07:48:59;;;;;;;6.38;1.35;;;4.30;99.90;;;;;;5092674;28;20044;-68
2023/03/05 07:51:25;;;;;;;;;;;5.00;99.90;;;;;;5092982;28;20040;-71
2023/03/05 07:53:52;;;;;;;10.23;1.52;;;;;;;;;;5092089;28;19966;-68
2023/03/05 07:56:25;;;;;;;14.00;1.83;;;;;;;;;;5092624;28;20048;-68
2023/03/05 07:58:51;;;;;;;8.30;1.40;;;4.60;99.90;;;;;;5092483;28;20056;-69
2023/03/05 08:01:17;;;;;;;8.00;1.38;;;4.50;99.90;;;;;;5091954;28;20062;-68
2023/03/05 08:03:43;;;;;;;9.60;1.50;;;4.30;99.90;;;;;;5092786;28;20067;-70
2023/03/05 08:06:11;;;;;;;5.47;1.38;;;4.80;99.90;;;;;;5092035;28;20047;-70
2023/03/05 08:08:37;;;;;;;5.82;1.38;;;;;;;;;;5092621;28;20048;-68
2023/03/05 08:11:07;;;;;;;;;;;4.30;99.90;;;;;;5092512;28;20074;-69
2023/03/05 08:13:32;;;;;;;9.65;1.80;;;4.70;99.90;;;;;;5092355;28;19970;-68
2023/03/05 08:15:58;;;;;;;7.18;1.23;;;5.00;99.90;;;;;;5091229;28;20456;-69
2023/03/05 08:18:24;;;;;;;8.88;1.40;;;4.80;99.90;;;;;;5092581;28;20059;-68
2023/03/05 08:20:50;;;;;;;7.00;1.08;;;5.00;99.90;;;;;;5092675;28;20048;-68
2023/03/05 08:23:16;;;;;;;9.05;1.67;;;5.50;99.90;;;;;;5092705;28;20056;-69
2023/03/05 08:25:41;;;;;;;8.98;1.88;;;5.60;99.90;;;;;;5092371;28;20125;-69
2023/03/05 08:28:07;;;;;;;3.60;1.27;;;5.40;99.90;;;;;;5091814;28;20356;-68
2023/03/05 08:30:32;;;;;;;5.22;1.10;;;5.50;99.90;;;;;;5091129;28;20105;-68
2023/03/05 08:32:58;;;;;;;5.35;1.05;;;5.50;99.90;;;;;;5092522;28;20040;-68
2023/03/05 08:35:24;;;;;;;6.70;1.23;;;4.90;99.90;;;;;;5092428;28;20063;-69
2023/03/05 08:37:50;;;;;;;6.82;1.30;;;4.20;99.90;;;;;;5092452;28;20123;-69
2023/03/05 08:40:19;;;;;;;;;;;3.80;99.90;;;;;;5092429;28;20488;-69
2023/03/05 08:42:45;;;;;;;8.00;1.15;;;3.70;99.90;;;;;;5090602;28;19924;-70
2023/03/05 08:45:11;;;;;;;11.80;1.48;;;;;;;;;;5090850;28;20047;-70
2023/03/05 08:47:37;;;;;;;;;;;3.70;99.90;;;;;;5091338;28;20180;-69
2023/03/05 08:50:02;;;;;;;11.65;1.70;;;4.40;99.90;;;;;;5092420;28;20395;-69
2023/03/05 08:52:28;;;;;;;11.52;1.52;;;;;;;;;;5090797;28;20044;-68
2023/03/05 08:54:54;;;;;;;9.85;1.45;;;4.10;99.90;;;;;;5091862;28;20189;-69
2023/03/05 08:57:20;;;;;;;6.75;1.00;;;4.30;99.90;;;;;;5090933;28;20131;-71
2023/03/05 08:59:45;;;;;;;15.43;1.50;;;4.60;99.90;;;;;;5091814;28;20200;-72
2023/03/05 09:02:12;;;;;;;18.83;1.73;;;5.00;99.90;;;;;;5091852;28;20047;-69
2023/03/05 09:04:37;;;;;;;11.13;2.10;;;4.80;99.90;;;;;;5092066;28;20048;-69
2023/03/05 09:07:04;;;;;;;11.05;1.33;;;4.80;99.90;;;;;;5092060;28;20050;-69
2023/03/05 09:09:31;;;;;;;9.90;1.48;;;5.50;99.90;;;;;;5091850;28;20059;-68
2023/03/05 09:11:58;;;;;;;11.50;2.00;;;5.00;99.90;;;;;;5090995;28;20060;-69
2023/03/05 09:14:27;;;;;;;10.18;1.52;;;;;;;;;;5091594;28;20063;-68
2023/03/05 09:16:56;;;;;;;12.38;1.60;;;5.90;99.90;;;;;;5092003;28;20105;-68
2023/03/05 09:19:22;;;;;;;9.20;1.63;;;;;;;;;;5091737;28;20084;-70
2023/03/05 09:21:48;;;;;;;5.82;1.23;;;5.90;99.90;;;;;;5091755;28;20067;-68
2023/03/05 09:24:14;;;;;;;16.63;1.98;;;6.00;99.90;;;;;;5091500;28;20484;-67
2023/03/05 09:26:41;;;;;;;12.98;1.60;;;5.40;99.90;;;;;;5090328;28;20050;-68
2023/03/05 09:29:07;;;;;;;12.13;1.55;;;5.30;99.90;;;;;;5091530;28;20135;-70
2023/03/05 09:31:35;;;;;;;10.13;1.10;;;5.50;99.90;;;;;;5091512;28;20058;-68
2023/03/05 09:34:01;;;;;;;9.15;1.30;;;;;;;;;;5091701;28;20091;-67
2023/03/05 09:36:29;;;;;;;6.15;1.10;;;5.80;99.90;;;;;;5091244;28;20065;-69
2023/03/05 09:38:55;;;;;;;7.35;1.50;;;5.60;99.90;;;;;;5091771;28;20044;-68
2023/03/05 09:41:40;;;;;;;;;;;6.30;99.90;;;;;;5094777;28;20048;-71
2023/03/05 09:44:27;;;;;;;6.30;1.58;;;6.00;99.90;;;;;;5095697;28;19920;-68
2023/03/05 09:47:31;;;;;;;4.43;1.25;;;6.20;99.90;;;;;;5095781;28;20130;-67
2023/03/05 09:50:09;;;;;;;6.47;1.33;;;6.50;99.90;;;;;;5052783;28;20096;-70
2023/03/05 09:52:46;;;;;;;6.05;1.10;;;5.80;99.90;;;;;;5019352;28;20076;-68
2023/03/05 09:55:30;;;;;;;;;;;5.90;99.90;;;;;;5079886;28;20067;-69
2023/03/05 09:58:02;;;;;;;7.45;1.33;;;6.60;99.90;;;;;;5095380;28;20240;-68
2023/03/05 10:00:48;;;;;;;7.93;1.00;;;6.20;99.90;;;;;;5095340;28;20044;-68
2023/03/05 10:03:49;;;;;;;6.40;1.02;;;6.30;99.90;;;;;;5095466;28;20063;-69
2023/03/05 10:06:40;;;;;;;7.43;1.23;;;6.30;99.90;;;;;;5077030;28;20056;-68
2023/03/05 10:09:09;;;;;;;7.05;1.30;;;6.40;99.90;;;;;;5094225;28;20048;-68
2023/03/05 10:11:43;;;;;;;6.80;1.02;;;6.30;99.90;;;;;;5093888;28;20188;-69
2023/03/05 10:14:32;;;;;;;7.75;1.40;;;6.30;99.90;;;;;;5095123;28;20043;-67
2023/03/05 10:17:43;;;;;;;4.43;1.42;;;6.40;99.90;;;;;;5094930;28;20051;-67
2023/03/05 10:20:21;;;;;;;5.93;1.58;;;6.50;99.90;;;;;;5094752;28;20062;-68
2023/03/05 10:23:03;;;;;;;9.70;2.00;;;6.50;99.90;;;;;;5094873;28;20105;-69
2023/03/05 10:25:48;;;;;;;10.98;1.60;;;;;;;;;;5094870;28;20400;-67
2023/03/05 10:28:21;;;;;;;7.03;1.48;;;;;;;;;;5094745;28;20040;-67
2023/03/05 10:30:53;;;;;;;10.25;1.80;;;6.00;99.90;;;;;;5094843;28;20070;-69
2023/03/05 10:33:37;;;;;;;5.38;1.40;;;6.10;99.90;;;;;;5094553;28;20511;-67
2023/03/05 10:36:20;;;;;;;8.80;1.27;;;;;;;;;;5094450;28;20055;-67
2023/03/05 10:39:04;;;;;;;5.20;1.42;;;6.10;99.90;;;;;;5094817;28;20445;-67
2023/03/05 10:42:04;;;;;;;4.13;1.20;;;6.40;99.90;;;;;;5094745;28;20102;-67
2023/03/05 10:44:46;;;;;;;6.75;1.27;;;6.40;99.90;;;;;;5069205;28;20399;-67
2023/03/05 10:47:46;;;;;;;5.03;1.35;;;6.10;99.90;;;;;;5094321;28;20063;-69
2023/03/05 10:50:24;;;;;;;5.65;1.10;;;6.40;99.90;;;;;;5093195;28;20188;-67
2023/03/05 10:53:12;;;;;;;15.30;1.30;;;6.40;99.90;;;;;;5092785;28;20080;-67
2023/03/05 10:55:39;;;;;;;10.25;1.20;;;6.60;99.90;;;;;;5094153;28;20051;-69
2023/03/05 10:58:12;;;;;;;5.00;1.50;;;6.50;99.90;;;;;;5093032;28;20146;-67
2023/03/05 11:00:38;;;;;;;4.10;1.30;;;6.40;99.90;;;;;;5094127;28;20058;-72
2023/03/05 11:03:07;;;;;;;6.00;1.27;;;6.80;99.90;;;;;;5093820;28;20091;-67
2023/03/05 11:05:36;;;;;;;6.13;1.60;;;6.80;99.90;;;;;;5093766;28;20066;-69
2023/03/05 11:08:28;;;;;;;11.73;1.52;;;7.20;99.90;;;;;;5093648;28;20051;-67
2023/03/05 11:11:08;;;;;;;6.63;1.33;;;7.20;99.90;;;;;;5093686;28;20044;-68
2023/03/05 11:13:55;;;;;;;7.40;1.45;;;6.70;99.90;;;;;;5093914;28;20166;-67
2023/03/05 11:16:24;;;;;;;7.50;1.30;;;7.00;99.90;;;;;;5092553;28;20075;-67
2023/03/05 11:19:09;;;;;;;7.15;1.83;;;6.30;99.90;;;;;;5092201;28;20414;-72
2023/03/05 11:21:35;;;;;;;9.27;2.00;;;;;;;;;;5092772;28;20117;-68
2023/03/05 11:24:17;;;;;;;7.15;1.23;;;6.40;99.90;;;;;;5092760;28;20126;-68
2023/03/05 11:26:51;;;;;;;5.82;1.00;;;6.60;99.90;;;;;;5093753;28;20056;-69
2023/03/05 11:29:19;;;;;;;6.78;1.38;;;6.50;99.90;;;;;;5093651;28;20643;-68
2023/03/05 11:31:44;;;;;;;5.55;1.38;;;6.90;99.90;;;;;;5093492;28;20530;-69
2023/03/05 11:34:16;;;;;;;10.27;1.92;;;6.90;99.90;;;;;;5093074;28;20048;-68
2023/03/05 11:36:57;;;;;;;3.47;1.13;;;6.80;99.90;;;;;;5093560;28;20044;-71
2023/03/05 11:39:24;;;;;;;6.60;1.30;;;7.00;99.90;;;;;;5093580;28;20050;-67
2023/03/05 11:42:05;;;;;;;8.70;1.13;;;7.00;99.90;;;;;;5093537;28;20047;-70
2023/03/05 11:44:53;;;;;;;8.27;1.50;;;6.80;99.90;;;;;;5093564;28;20060;-67
2023/03/05 11:47:25;;;;;;;7.20;1.38;;;;;;;;;;5092982;28;20117;-68
2023/03/05 11:50:02;;;;;;;9.10;1.25;;;6.80;99.90;;;;;;5093322;28;20052;-68
2023/03/05 11:52:31;;;;;;;7.53;1.42;;;7.30;99.90;;;;;;5093258;28;20044;-68
2023/03/05 11:55:02;;;;;;;10.50;1.77;;;7.40;99.90;;;;;;5092963;28;20139;-70
2023/03/05 11:57:39;;;;;;;7.95;1.25;;;7.30;99.90;;;;;;5093325;28;20050;-67
2023/03/05 12:00:11;;;;;;;8.55;1.05;;;7.60;99.90;;;;;;5093020;28;20044;-68
2023/03/05 12:02:37;;;;;;;8.88;1.30;;;7.50;99.90;;;;;;5091857;28;20127;-67
2023/03/05 12:05:05;;;;;;;5.03;1.17;;;7.40;99.90;;;;;;5092859;28;20037;-67
2023/03/05 12:07:38;;;;;;;4.22;1.13;;;7.20;99.90;;;;;;5091500;28;20406;-69
2023/03/05 12:10:05;;;;;;;8.55;1.33;;;7.70;99.90;;;;;;5093110;28;20055;-68
2023/03/05 12:12:37;;;;;;;6.38;1.30;;;7.40;99.90;;;;;;5074536;28;20085;-67
2023/03/05 12:15:52;;;;;;;12.57;1.63;;;7.50;99.90;;;;;;5092849;28;20056;-67
2023/03/05 12:18:21;;;;;;;9.10;1.70;;;7.50;99.90;;;;;;5073706;28;20084;-67
2023/03/05 12:21:00;;;;;;;6.65;1.10;;;7.80;99.90;;;;;;5092458;28;20088;-68
2023/03/05 12:23:27;;;;;;;9.25;1.15;;;7.60;99.90;;;;;;5092373;28;20254;-67
2023/03/05 12:26:00;;;;;;;9.02;1.25;;;7.70;99.90;;;;;;5092758;28;20048;-67
2023/03/05 12:28:34;;;;;;;6.97;1.20;;;7.80;99.90;;;;;;5092146;28;20043;-67
2023/03/05 12:31:20;;;;;;;11.52;1.35;;;7.90;99.90;;;;;;5092121;28;20083;-67
2023/03/05 12:33:46;;;;;;;8.45;1.50;;;7.60;99.90;;;;;;5092217;28;20047;-67
2023/03/05 12:36:20;;;;;;;4.93;1.23;;;7.30;99.90;;;;;;5090563;28;20412;-66
2023/03/05 12:38:51;;;;;;;6.20;1.13;;;7.00;99.90;;;;;;5091232;28;20047;-66
2023/03/05 12:41:22;;;;;;;8.82;1.13;;;7.20;99.90;;;;;;5092043;28;20044;-67
2023/03/05 12:44:06;;;;;;;3.47;1.10;;;7.30;99.90;;;;;;5092047;28;20504;-68
2023/03/05 12:46:37;;;;;;;4.32;1.30;;;7.10;99.90;;;;;;5091958;28;20043;-66
2023/03/05 12:49:18;;;;;;;7.55;1.60;;;7.50;99.90;;;;;;5092099;28;20068;-69
2023/03/05 12:51:49;;;;;;;7.10;1.25;;;7.80;99.90;;;;;;5092183;28;20063;-69
2023/03/05 12:54:28;;;;;;;8.40;1.17;;;7.80;99.90;;;;;;5092488;28;20113;-68
2023/03/05 12:56:56;;;;;;;4.75;1.30;;;7.90;99.90;;;;;;5090970;28;20132;-69
2023/03/05 12:59:28;;;;;;;6.63;1.38;;;7.40;99.90;;;;;;5092022;28;20086;-66
2023/03/05 13:01:58;;;;;;;4.70;1.17;;;7.30;99.90;;;;;;5092153;28;20040;-67
2023/03/05 13:04:27;;;;;;;13.68;1.55;;;7.40;99.90;;;;;;5092205;28;20097;-66
2023/03/05 13:07:03;;;;;;;9.88;1.80;;;7.60;99.90;;;;;;5092045;28;20412;-67
2023/03/05 13:09:33;;;;;;;11.05;1.65;;;7.50;99.90;;;;;;5091728;28;20831;-66
2023/03/05 13:12:01;;;;;;;7.60;2.17;;;7.00;99.90;;;;;;5091645;28;20040;-69
2023/03/05 13:14:42;;;;;;;9.93;1.63;;;6.90;99.90;;;;;;5091510;28;20048;-66
2023/03/05 13:17:36;;;;;;;5.97;1.00;;;7.20;99.90;;;;;;5091869;28;20101;-66
2023/03/05 13:20:38;;;;;;;7.13;1.60;;;7.00;99.90;;;;;;5090512;28;20036;-68
2023/03/05 13:23:12;;;;;;;6.57;1.20;;;7.10;99.90;;;;;;5091943;28;20127;-68
2023/03/05 13:25:37;;;;;;;7.72;1.15;;;7.20;99.90;;;;;;5090717;28;20368;-67
2023/03/05 13:28:08;;;;;;;9.23;1.52;;;7.00;99.90;;;;;;5091801;28;20050;-66
2023/03/05 13:30:34;;;;;;;3.83;1.10;;;7.10;99.90;;;;;;5091428;28;20373;-66
2023/03/05 13:33:03;;;;;;;7.25;1.25;;;6.90;99.90;;;;;;5091358;28;20047;-68
2023/03/05 13:35:30;;;;;;;5.30;1.33;;;7.10;99.90;;;;;;5091462;28;20048;-66
2023/03/05 13:37:56;;;;;;;7.15;1.50;;;7.20;99.90;;;;;;5091591;28;20044;-67
2023/03/05 13:40:30;;;;;;;4.85;1.08;;;7.30;99.90;;;;;;5091458;28;20403;-67
2023/03/05 13:43:11;;;;;;;5.75;1.10;;;7.10;99.90;;;;;;5091168;28;20151;-75